sensor_id;sensor_type;location;lat;lon;timestamp;temperature;humidity
5802;DHT22;2927;49.366;8.530;2023-12-07T00:01:08;2.30;99.90
5802;DHT22;2927;49.366;8.530;2023-12-07T00:03:33;2.30;99.90
5802;DHT22;2927;49.366;8.530;2023-12-07T00:05:59;2.30;99.90
5802;DHT22;2927;49.366;8.530;2023-12-07T00:08:24;2.20;99.90
5802;DHT22;2927;49.366;8.530;2023-12-07T00:10:51;2.20;99.90
5802;DHT22;2927;49.366;8.530;2023-12-07T00:13:16;2.20;99.90
5802;DHT22;2927;49.366;8.530;2023-12-07T00:15:42;2.10;99.90
5802;DHT22;2927;49.366;8.530;2023-12-07T00:18:08;2.10;99.90
5802;DHT22;2927;49.366;8.530;2023-12-07T00:20:34;2.00;99.90
5802;DHT22;2927;49.366;8.530;2023-12-07T00:23:00;2.00;99.90
5802;DHT22;2927;49.366;8.530;2023-12-07T00:25:25;1.90;99.90
5802;DHT22;2927;49.366;8.530;2023-12-07T00:27:51;1.80;99.90
5802;DHT22;2927;49.366;8.530;2023-12-07T00:30:17;1.80;99.90
5802;DHT22;2927;49.366;8.530;2023-12-07T00:32:43;1.90;99.90
5802;DHT22;2927;49.366;8.530;2023-12-07T00:35:10;1.80;99.90
5802;DHT22;2927;49.366;8.530;2023-12-07T00:37:36;1.90;99.90
5802;DHT22;2927;49.366;8.530;2023-12-07T00:40:02;1.80;99.90
5802;DHT22;2927;49.366;8.530;2023-12-07T00:42:28;1.70;99.90
5802;DHT22;2927;49.366;8.530;2023-12-07T00:44:54;1.70;99.90
5802;DHT22;2927;49.366;8.530;2023-12-07T00:47:20;1.70;99.90
5802;DHT22;2927;49.366;8.530;2023-12-07T00:49:46;1.80;99.90
5802;DHT22;2927;49.366;8.530;2023-12-07T00:52:12;1.80;99.90
5802;DHT22;2927;49.366;8.530;2023-12-07T00:54:38;1.80;99.90
5802;DHT22;2927;49.366;8.530;2023-12-07T00:57:05;1.80;99.90
5802;DHT22;2927;49.366;8.530;2023-12-07T00:59:30;1.70;99.90
5802;DHT22;2927;49.366;8.530;2023-12-07T01:02:03;1.60;99.90
5802;DHT22;2927;49.366;8.530;2023-12-07T01:04:30;1.70;99.90
5802;DHT22;2927;49.366;8.530;2023-12-07T01:06:56;1.60;99.90
5802;DHT22;2927;49.366;8.530;2023-12-07T01:09:22;1.60;99.90
5802;DHT22;2927;49.366;8.530;2023-12-07T01:11:49;1.50;99.90
5802;DHT22;2927;49.366;8.530;2023-12-07T01:14:15;1.30;99.90
5802;DHT22;2927;49.366;8.530;2023-12-07T01:16:40;1.20;99.90
5802;DHT22;2927;49.366;8.530;2023-12-07T01:19:06;1.10;99.90
5802;DHT22;2927;49.366;8.530;2023-12-07T01:21:33;1.00;99.90
5802;DHT22;2927;49.366;8.530;2023-12-07T01:23:58;0.90;99.90
5802;DHT22;2927;49.366;8.530;2023-12-07T01:26:24;0.90;99.90
5802;DHT22;2927;49.366;8.530;2023-12-07T01:28:50;0.80;99.90
5802;DHT22;2927;49.366;8.530;2023-12-07T01:31:16;0.80;99.90
5802;DHT22;2927;49.366;8.530;2023-12-07T01:33:45;1.00;99.90
5802;DHT22;2927;49.366;8.530;2023-12-07T01:36:11;1.10;99.90
5802;DHT22;2927;49.366;8.530;2023-12-07T01:38:36;1.10;99.90
5802;DHT22;2927;49.366;8.530;2023-12-07T01:41:02;1.10;99.90
5802;DHT22;2927;49.366;8.530;2023-12-07T01:43:28;1.10;99.90
5802;DHT22;2927;49.366;8.530;2023-12-07T01:45:56;1.10;99.90
5802;DHT22;2927;49.366;8.530;2023-12-07T01:48:23;1.00;99.90
5802;DHT22;2927;49.366;8.530;2023-12-07T01:50:49;1.00;99.90
5802;DHT22;2927;49.366;8.530;2023-12-07T01:53:15;1.00;99.90
5802;DHT22;2927;49.366;8.530;2023-12-07T01:55:41;1.00;99.90
5802;DHT22;2927;49.366;8.530;2023-12-07T01:58:07;0.90;99.90
5802;DHT22;2927;49.366;8.530;2023-12-07T02:00:34;0.80;99.90
5802;DHT22;2927;49.366;8.530;2023-12-07T02:03:02;0.90;99.90
5802;DHT22;2927;49.366;8.530;2023-12-07T02:05:29;0.80;99.90
5802;DHT22;2927;49.366;8.530;2023-12-07T02:07:54;0.90;99.90
5802;DHT22;2927;49.366;8.530;2023-12-07T02:10:20;0.80;99.90
5802;DHT22;2927;49.366;8.530;2023-12-07T02:12:46;0.80;99.90
5802;DHT22;2927;49.366;8.530;2023-12-07T02:15:12;0.80;99.90
5802;DHT22;2927;49.366;8.530;2023-12-07T02:18:04;0.90;99.90
5802;DHT22;2927;49.366;8.530;2023-12-07T02:20:39;0.90;99.90
5802;DHT22;2927;49.366;8.530;2023-12-07T02:23:10;0.90;99.90
5802;DHT22;2927;49.366;8.530;2023-12-07T02:25:51;0.90;99.90
5802;DHT22;2927;49.366;8.530;2023-12-07T02:28:17;0.80;99.90
5802;DHT22;2927;49.366;8.530;2023-12-07T02:30:43;0.80;99.90
5802;DHT22;2927;49.366;8.530;2023-12-07T02:33:10;0.80;99.90
5802;DHT22;2927;49.366;8.530;2023-12-07T02:35:37;0.80;99.90
5802;DHT22;2927;49.366;8.530;2023-12-07T02:38:03;0.70;99.90
5802;DHT22;2927;49.366;8.530;2023-12-07T02:40:31;0.60;99.90
5802;DHT22;2927;49.366;8.530;2023-12-07T02:42:57;0.60;99.90
5802;DHT22;2927;49.366;8.530;2023-12-07T02:45:24;0.40;99.90
5802;DHT22;2927;49.366;8.530;2023-12-07T02:47:51;0.30;99.90
5802;DHT22;2927;49.366;8.530;2023-12-07T02:50:16;0.20;99.90
5802;DHT22;2927;49.366;8.530;2023-12-07T02:52:42;0.30;99.90
5802;DHT22;2927;49.366;8.530;2023-12-07T02:55:07;0.30;99.90
5802;DHT22;2927;49.366;8.530;2023-12-07T02:57:34;0.30;99.90
5802;DHT22;2927;49.366;8.530;2023-12-07T03:00:00;0.40;99.90
5802;DHT22;2927;49.366;8.530;2023-12-07T03:02:26;0.30;99.90
5802;DHT22;2927;49.366;8.530;2023-12-07T03:04:52;0.30;99.90
5802;DHT22;2927;49.366;8.530;2023-12-07T03:07:17;0.10;99.90
5802;DHT22;2927;49.366;8.530;2023-12-07T03:09:43;0.10;99.90
5802;DHT22;2927;49.366;8.530;2023-12-07T03:12:09;0.10;99.90
5802;DHT22;2927;49.366;8.530;2023-12-07T03:14:34;0.20;99.90
5802;DHT22;2927;49.366;8.530;2023-12-07T03:17:00;0.20;99.90
5802;DHT22;2927;49.366;8.530;2023-12-07T03:19:25;0.20;99.90
5802;DHT22;2927;49.366;8.530;2023-12-07T03:21:51;0.20;99.90
5802;DHT22;2927;49.366;8.530;2023-12-07T03:24:17;0.10;99.90
5802;DHT22;2927;49.366;8.530;2023-12-07T03:26:42;0.20;99.90
5802;DHT22;2927;49.366;8.530;2023-12-07T03:29:08;0.10;99.90
5802;DHT22;2927;49.366;8.530;2023-12-07T03:31:33;0.10;99.90
5802;DHT22;2927;49.366;8.530;2023-12-07T03:33:59;0.00;99.90
5802;DHT22;2927;49.366;8.530;2023-12-07T03:36:26;0.00;99.90
5802;DHT22;2927;49.366;8.530;2023-12-07T03:38:52;-0.10;99.90
5802;DHT22;2927;49.366;8.530;2023-12-07T03:41:18;-0.10;99.90
5802;DHT22;2927;49.366;8.530;2023-12-07T03:43:45;-0.10;99.90
5802;DHT22;2927;49.366;8.530;2023-12-07T03:46:11;-0.20;99.90
5802;DHT22;2927;49.366;8.530;2023-12-07T03:48:38;-0.20;99.90
5802;DHT22;2927;49.366;8.530;2023-12-07T03:51:04;-0.20;99.90
5802;DHT22;2927;49.366;8.530;2023-12-07T03:53:31;-0.30;99.90
5802;DHT22;2927;49.366;8.530;2023-12-07T03:55:57;-0.30;99.90
5802;DHT22;2927;49.366;8.530;2023-12-07T03:58:24;-0.40;99.90
5802;DHT22;2927;49.366;8.530;2023-12-07T04:00:50;-0.60;99.90
5802;DHT22;2927;49.366;8.530;2023-12-07T04:03:15;-0.50;99.90
5802;DHT22;2927;49.366;8.530;2023-12-07T04:05:42;-0.60;99.90
5802;DHT22;2927;49.366;8.530;2023-12-07T04:08:08;-0.60;99.90
5802;DHT22;2927;49.366;8.530;2023-12-07T04:10:34;-0.60;99.90
5802;DHT22;2927;49.366;8.530;2023-12-07T04:13:00;-0.60;99.90
5802;DHT22;2927;49.366;8.530;2023-12-07T04:15:26;-0.60;99.90
5802;DHT22;2927;49.366;8.530;2023-12-07T04:17:52;-0.70;99.90
5802;DHT22;2927;49.366;8.530;2023-12-07T04:20:18;-0.70;99.90
5802;DHT22;2927;49.366;8.530;2023-12-07T04:22:44;-0.80;99.90
5802;DHT22;2927;49.366;8.530;2023-12-07T04:25:11;-0.80;99.90
5802;DHT22;2927;49.366;8.530;2023-12-07T04:27:36;-0.80;99.90
5802;DHT22;2927;49.366;8.530;2023-12-07T04:30:04;-0.70;99.90
5802;DHT22;2927;49.366;8.530;2023-12-07T04:32:30;-0.60;99.90
5802;DHT22;2927;49.366;8.530;2023-12-07T04:34:56;-0.60;99.90
5802;DHT22;2927;49.366;8.530;2023-12-07T04:37:21;-0.60;99.90
5802;DHT22;2927;49.366;8.530;2023-12-07T04:39:47;-0.70;99.90
5802;DHT22;2927;49.366;8.530;2023-12-07T04:42:13;-0.80;99.90
5802;DHT22;2927;49.366;8.530;2023-12-07T04:44:39;-0.80;99.90
5802;DHT22;2927;49.366;8.530;2023-12-07T04:47:05;-0.80;99.90
5802;DHT22;2927;49.366;8.530;2023-12-07T04:49:31;-0.80;99.90
5802;DHT22;2927;49.366;8.530;2023-12-07T04:51:57;-0.90;99.90
5802;DHT22;2927;49.366;8.530;2023-12-07T04:54:24;-0.90;99.90
5802;DHT22;2927;49.366;8.530;2023-12-07T04:56:50;-1.00;99.90
5802;DHT22;2927;49.366;8.530;2023-12-07T04:59:16;-1.00;99.90
5802;DHT22;2927;49.366;8.530;2023-12-07T05:01:41;-1.20;99.90
5802;DHT22;2927;49.366;8.530;2023-12-07T05:04:07;-1.20;99.90
5802;DHT22;2927;49.366;8.530;2023-12-07T05:06:34;-1.10;99.90
5802;DHT22;2927;49.366;8.530;2023-12-07T05:09:00;-1.10;99.90
5802;DHT22;2927;49.366;8.530;2023-12-07T05:11:26;-1.10;99.90
5802;DHT22;2927;49.366;8.530;2023-12-07T05:13:52;-1.00;99.90
5802;DHT22;2927;49.366;8.530;2023-12-07T05:16:18;-1.10;99.90
5802;DHT22;2927;49.366;8.530;2023-12-07T05:18:43;-1.00;99.90
5802;DHT22;2927;49.366;8.530;2023-12-07T05:21:09;-1.00;99.90
5802;DHT22;2927;49.366;8.530;2023-12-07T05:23:35;-0.90;99.90
5802;DHT22;2927;49.366;8.530;2023-12-07T05:26:01;-0.90;99.90
5802;DHT22;2927;49.366;8.530;2023-12-07T05:28:27;-0.90;99.90
5802;DHT22;2927;49.366;8.530;2023-12-07T05:30:53;-0.90;99.90
5802;DHT22;2927;49.366;8.530;2023-12-07T05:33:19;-0.90;99.90
5802;DHT22;2927;49.366;8.530;2023-12-07T05:35:45;-0.80;99.90
5802;DHT22;2927;49.366;8.530;2023-12-07T05:38:11;-0.90;99.90
5802;DHT22;2927;49.366;8.530;2023-12-07T05:40:37;-0.80;99.90
5802;DHT22;2927;49.366;8.530;2023-12-07T05:43:02;-0.80;99.90
5802;DHT22;2927;49.366;8.530;2023-12-07T05:45:29;-0.80;99.90
5802;DHT22;2927;49.366;8.530;2023-12-07T05:47:55;-0.80;99.90
5802;DHT22;2927;49.366;8.530;2023-12-07T05:50:21;-0.80;99.90
5802;DHT22;2927;49.366;8.530;2023-12-07T05:52:47;-0.90;99.90
5802;DHT22;2927;49.366;8.530;2023-12-07T05:55:12;-1.00;99.90
5802;DHT22;2927;49.366;8.530;2023-12-07T05:57:38;-1.00;99.90
5802;DHT22;2927;49.366;8.530;2023-12-07T06:00:05;-1.00;99.90
5802;DHT22;2927;49.366;8.530;2023-12-07T06:02:34;-1.00;99.90
5802;DHT22;2927;49.366;8.530;2023-12-07T06:05:00;-0.80;99.90
5802;DHT22;2927;49.366;8.530;2023-12-07T06:07:26;-0.60;99.90
5802;DHT22;2927;49.366;8.530;2023-12-07T06:09:52;-0.60;99.90
5802;DHT22;2927;49.366;8.530;2023-12-07T06:12:17;-0.50;99.90
5802;DHT22;2927;49.366;8.530;2023-12-07T06:14:43;-0.40;99.90
5802;DHT22;2927;49.366;8.530;2023-12-07T06:17:09;-0.40;99.90
5802;DHT22;2927;49.366;8.530;2023-12-07T06:19:34;-0.40;99.90
5802;DHT22;2927;49.366;8.530;2023-12-07T06:22:01;-0.30;99.90
5802;DHT22;2927;49.366;8.530;2023-12-07T06:24:27;-0.30;99.90
5802;DHT22;2927;49.366;8.530;2023-12-07T06:26:54;-0.30;99.90
5802;DHT22;2927;49.366;8.530;2023-12-07T06:29:20;-0.30;99.90
5802;DHT22;2927;49.366;8.530;2023-12-07T06:31:46;-0.30;99.90
5802;DHT22;2927;49.366;8.530;2023-12-07T06:34:12;-0.20;99.90
5802;DHT22;2927;49.366;8.530;2023-12-07T06:36:37;-0.20;99.90
5802;DHT22;2927;49.366;8.530;2023-12-07T06:39:03;-0.20;99.90
5802;DHT22;2927;49.366;8.530;2023-12-07T06:41:29;-0.10;99.90
5802;DHT22;2927;49.366;8.530;2023-12-07T06:43:55;-0.10;99.90
5802;DHT22;2927;49.366;8.530;2023-12-07T06:46:20;0.00;99.90
5802;DHT22;2927;49.366;8.530;2023-12-07T06:48:47;-0.10;99.90
5802;DHT22;2927;49.366;8.530;2023-12-07T06:51:13;-0.20;99.90
5802;DHT22;2927;49.366;8.530;2023-12-07T06:53:44;-0.20;99.90
5802;DHT22;2927;49.366;8.530;2023-12-07T06:56:13;-0.30;99.90
5802;DHT22;2927;49.366;8.530;2023-12-07T06:58:41;-0.40;99.90
5802;DHT22;2927;49.366;8.530;2023-12-07T07:01:10;-0.40;99.90
5802;DHT22;2927;49.366;8.530;2023-12-07T07:03:38;-0.40;99.90
5802;DHT22;2927;49.366;8.530;2023-12-07T07:06:14;-0.30;99.90
5802;DHT22;2927;49.366;8.530;2023-12-07T07:08:43;-0.30;99.90
5802;DHT22;2927;49.366;8.530;2023-12-07T07:11:15;-0.30;99.90
5802;DHT22;2927;49.366;8.530;2023-12-07T07:13:41;-0.30;99.90
5802;DHT22;2927;49.366;8.530;2023-12-07T07:16:09;-0.40;99.90
5802;DHT22;2927;49.366;8.530;2023-12-07T07:18:37;-0.40;99.90
5802;DHT22;2927;49.366;8.530;2023-12-07T07:21:03;-0.40;99.90
5802;DHT22;2927;49.366;8.530;2023-12-07T07:23:29;-0.40;99.90
5802;DHT22;2927;49.366;8.530;2023-12-07T07:25:55;-0.50;99.90
5802;DHT22;2927;49.366;8.530;2023-12-07T07:28:22;-0.50;99.90
5802;DHT22;2927;49.366;8.530;2023-12-07T07:30:48;-0.40;99.90
5802;DHT22;2927;49.366;8.530;2023-12-07T07:33:14;-0.50;99.90
5802;DHT22;2927;49.366;8.530;2023-12-07T07:35:40;-0.50;99.90
5802;DHT22;2927;49.366;8.530;2023-12-07T07:38:06;-0.40;99.90
5802;DHT22;2927;49.366;8.530;2023-12-07T07:40:32;-0.40;99.90
5802;DHT22;2927;49.366;8.530;2023-12-07T07:43:01;-0.40;99.90
5802;DHT22;2927;49.366;8.530;2023-12-07T07:45:31;-0.30;99.90
5802;DHT22;2927;49.366;8.530;2023-12-07T07:47:58;-0.20;99.90
5802;DHT22;2927;49.366;8.530;2023-12-07T07:50:24;-0.20;99.90
5802;DHT22;2927;49.366;8.530;2023-12-07T07:52:55;-0.30;99.90
5802;DHT22;2927;49.366;8.530;2023-12-07T07:55:24;-0.10;99.90
5802;DHT22;2927;49.366;8.530;2023-12-07T07:57:50;-0.10;99.90
5802;DHT22;2927;49.366;8.530;2023-12-07T08:00:17;0.00;99.90
5802;DHT22;2927;49.366;8.530;2023-12-07T08:02:56;0.10;99.90
5802;DHT22;2927;49.366;8.530;2023-12-07T08:05:32;0.20;99.90
5802;DHT22;2927;49.366;8.530;2023-12-07T08:08:32;0.30;99.90
5802;DHT22;2927;49.366;8.530;2023-12-07T08:11:08;0.20;99.90
5802;DHT22;2927;49.366;8.530;2023-12-07T08:13:38;0.10;99.90
5802;DHT22;2927;49.366;8.530;2023-12-07T08:16:27;0.00;99.90
5802;DHT22;2927;49.366;8.530;2023-12-07T08:19:03;-0.10;99.90
5802;DHT22;2927;49.366;8.530;2023-12-07T08:21:39;-0.10;99.90
5802;DHT22;2927;49.366;8.530;2023-12-07T08:24:07;0.00;99.90
5802;DHT22;2927;49.366;8.530;2023-12-07T08:26:43;0.10;99.90
5802;DHT22;2927;49.366;8.530;2023-12-07T08:29:32;0.20;99.90
5802;DHT22;2927;49.366;8.530;2023-12-07T08:32:05;0.30;99.90
5802;DHT22;2927;49.366;8.530;2023-12-07T08:34:31;0.50;99.90
5802;DHT22;2927;49.366;8.530;2023-12-07T08:37:39;0.50;99.90
5802;DHT22;2927;49.366;8.530;2023-12-07T08:40:05;0.60;99.90
5802;DHT22;2927;49.366;8.530;2023-12-07T08:42:31;0.70;99.90
5802;DHT22;2927;49.366;8.530;2023-12-07T08:45:00;0.70;99.90
5802;DHT22;2927;49.366;8.530;2023-12-07T08:47:33;0.80;99.90
5802;DHT22;2927;49.366;8.530;2023-12-07T08:50:00;0.80;99.90
5802;DHT22;2927;49.366;8.530;2023-12-07T08:52:25;0.90;99.90
5802;DHT22;2927;49.366;8.530;2023-12-07T08:54:52;0.90;99.90
5802;DHT22;2927;49.366;8.530;2023-12-07T08:57:18;0.90;99.90
5802;DHT22;2927;49.366;8.530;2023-12-07T08:59:44;0.90;99.90
5802;DHT22;2927;49.366;8.530;2023-12-07T09:02:10;1.00;99.90
5802;DHT22;2927;49.366;8.530;2023-12-07T09:04:35;1.10;99.90
5802;DHT22;2927;49.366;8.530;2023-12-07T09:07:01;1.00;99.90
5802;DHT22;2927;49.366;8.530;2023-12-07T09:09:26;1.10;99.90
5802;DHT22;2927;49.366;8.530;2023-12-07T09:11:52;1.20;99.90
5802;DHT22;2927;49.366;8.530;2023-12-07T09:14:18;1.30;99.90
5802;DHT22;2927;49.366;8.530;2023-12-07T09:16:45;1.20;99.90
5802;DHT22;2927;49.366;8.530;2023-12-07T09:19:11;1.30;99.90
5802;DHT22;2927;49.366;8.530;2023-12-07T09:21:38;1.40;99.90
5802;DHT22;2927;49.366;8.530;2023-12-07T09:24:04;1.40;99.90
5802;DHT22;2927;49.366;8.530;2023-12-07T09:26:31;1.40;99.90
5802;DHT22;2927;49.366;8.530;2023-12-07T09:28:56;1.50;99.90
5802;DHT22;2927;49.366;8.530;2023-12-07T09:31:22;1.50;99.90
5802;DHT22;2927;49.366;8.530;2023-12-07T09:33:48;1.50;99.90
5802;DHT22;2927;49.366;8.530;2023-12-07T09:36:17;1.50;99.90
5802;DHT22;2927;49.366;8.530;2023-12-07T09:38:44;1.60;99.90
5802;DHT22;2927;49.366;8.530;2023-12-07T09:41:09;1.70;99.90
5802;DHT22;2927;49.366;8.530;2023-12-07T09:43:36;1.80;99.90
5802;DHT22;2927;49.366;8.530;2023-12-07T09:46:01;1.90;99.90
5802;DHT22;2927;49.366;8.530;2023-12-07T09:48:27;1.90;99.90
5802;DHT22;2927;49.366;8.530;2023-12-07T09:50:55;1.90;99.90
5802;DHT22;2927;49.366;8.530;2023-12-07T09:53:21;2.00;99.90
5802;DHT22;2927;49.366;8.530;2023-12-07T09:55:47;2.00;99.90
5802;DHT22;2927;49.366;8.530;2023-12-07T09:58:14;2.00;99.90
5802;DHT22;2927;49.366;8.530;2023-12-07T10:00:40;2.10;99.90
5802;DHT22;2927;49.366;8.530;2023-12-07T10:03:06;2.20;99.90
5802;DHT22;2927;49.366;8.530;2023-12-07T10:05:53;2.10;99.90
5802;DHT22;2927;49.366;8.530;2023-12-07T10:08:32;2.20;99.90
5802;DHT22;2927;49.366;8.530;2023-12-07T10:11:05;2.20;99.90
5802;DHT22;2927;49.366;8.530;2023-12-07T10:13:32;2.10;99.90
5802;DHT22;2927;49.366;8.530;2023-12-07T10:18:51;2.20;99.90
5802;DHT22;2927;49.366;8.530;2023-12-07T10:21:33;2.30;99.90
5802;DHT22;2927;49.366;8.530;2023-12-07T10:23:59;2.30;99.90
5802;DHT22;2927;49.366;8.530;2023-12-07T10:26:24;2.40;99.90
5802;DHT22;2927;49.366;8.530;2023-12-07T10:28:51;2.60;99.90
5802;DHT22;2927;49.366;8.530;2023-12-07T10:31:19;2.60;99.90
5802;DHT22;2927;49.366;8.530;2023-12-07T10:33:49;2.70;99.90
5802;DHT22;2927;49.366;8.530;2023-12-07T10:36:15;2.90;99.90
5802;DHT22;2927;49.366;8.530;2023-12-07T10:38:40;2.80;99.90
5802;DHT22;2927;49.366;8.530;2023-12-07T10:41:12;2.80;99.90
5802;DHT22;2927;49.366;8.530;2023-12-07T10:43:44;2.90;99.90
5802;DHT22;2927;49.366;8.530;2023-12-07T10:46:15;2.90;99.90
5802;DHT22;2927;49.366;8.530;2023-12-07T10:48:45;2.90;99.90
5802;DHT22;2927;49.366;8.530;2023-12-07T10:51:17;2.90;99.90
5802;DHT22;2927;49.366;8.530;2023-12-07T10:53:45;2.90;99.90
5802;DHT22;2927;49.366;8.530;2023-12-07T10:56:16;3.10;99.90
5802;DHT22;2927;49.366;8.530;2023-12-07T10:58:45;3.00;99.90
5802;DHT22;2927;49.366;8.530;2023-12-07T11:01:11;3.10;99.90
5802;DHT22;2927;49.366;8.530;2023-12-07T11:03:39;3.10;99.90
5802;DHT22;2927;49.366;8.530;2023-12-07T11:06:09;3.10;99.90
5802;DHT22;2927;49.366;8.530;2023-12-07T11:09:01;3.00;99.90
5802;DHT22;2927;49.366;8.530;2023-12-07T11:11:41;3.10;99.90
5802;DHT22;2927;49.366;8.530;2023-12-07T11:14:10;3.00;99.90
5802;DHT22;2927;49.366;8.530;2023-12-07T11:16:43;3.00;99.90
5802;DHT22;2927;49.366;8.530;2023-12-07T11:19:44;3.00;99.90
5802;DHT22;2927;49.366;8.530;2023-12-07T11:22:12;3.00;99.90
5802;DHT22;2927;49.366;8.530;2023-12-07T11:24:51;3.00;99.90
5802;DHT22;2927;49.366;8.530;2023-12-07T11:27:17;3.20;99.90
5802;DHT22;2927;49.366;8.530;2023-12-07T11:29:42;3.30;99.90
5802;DHT22;2927;49.366;8.530;2023-12-07T11:32:11;3.40;99.90
5802;DHT22;2927;49.366;8.530;2023-12-07T11:34:40;3.40;99.90
5802;DHT22;2927;49.366;8.530;2023-12-07T11:37:10;3.50;99.90
5802;DHT22;2927;49.366;8.530;2023-12-07T11:39:40;3.60;99.90
5802;DHT22;2927;49.366;8.530;2023-12-07T11:42:12;3.70;99.90
5802;DHT22;2927;49.366;8.530;2023-12-07T11:44:40;3.90;99.90
5802;DHT22;2927;49.366;8.530;2023-12-07T11:47:07;4.00;99.90
5802;DHT22;2927;49.366;8.530;2023-12-07T11:49:34;4.00;99.90
5802;DHT22;2927;49.366;8.530;2023-12-07T11:52:00;4.00;99.90
5802;DHT22;2927;49.366;8.530;2023-12-07T11:54:27;4.10;99.90
5802;DHT22;2927;49.366;8.530;2023-12-07T11:56:57;4.00;99.90
5802;DHT22;2927;49.366;8.530;2023-12-07T11:59:25;4.00;99.90
5802;DHT22;2927;49.366;8.530;2023-12-07T12:01:51;4.00;99.90
5802;DHT22;2927;49.366;8.530;2023-12-07T12:04:17;4.00;99.90
5802;DHT22;2927;49.366;8.530;2023-12-07T12:06:44;4.10;99.90
5802;DHT22;2927;49.366;8.530;2023-12-07T12:09:14;4.20;99.90
5802;DHT22;2927;49.366;8.530;2023-12-07T12:11:57;4.20;99.90
5802;DHT22;2927;49.366;8.530;2023-12-07T12:14:26;4.30;80.50
5802;DHT22;2927;49.366;8.530;2023-12-07T12:16:53;4.40;23.40
5802;DHT22;2927;49.366;8.530;2023-12-07T12:19:19;4.50;1.00
5802;DHT22;2927;49.366;8.530;2023-12-07T12:21:46;4.50;1.00
5802;DHT22;2927;49.366;8.530;2023-12-07T12:24:16;4.60;1.00
5802;DHT22;2927;49.366;8.530;2023-12-07T12:26:42;4.60;1.00
5802;DHT22;2927;49.366;8.530;2023-12-07T12:29:11;4.70;1.00
5802;DHT22;2927;49.366;8.530;2023-12-07T12:31:38;4.60;1.00
5802;DHT22;2927;49.366;8.530;2023-12-07T12:34:07;4.50;1.00
5802;DHT22;2927;49.366;8.530;2023-12-07T12:36:35;4.50;1.00
5802;DHT22;2927;49.366;8.530;2023-12-07T12:39:02;4.40;1.00
5802;DHT22;2927;49.366;8.530;2023-12-07T12:41:31;4.40;1.00
5802;DHT22;2927;49.366;8.530;2023-12-07T12:44:15;4.40;1.00
5802;DHT22;2927;49.366;8.530;2023-12-07T12:46:43;4.40;1.00
5802;DHT22;2927;49.366;8.530;2023-12-07T12:49:10;4.40;1.00
5802;DHT22;2927;49.366;8.530;2023-12-07T12:51:38;4.40;1.00
5802;DHT22;2927;49.366;8.530;2023-12-07T12:54:06;4.50;1.00
5802;DHT22;2927;49.366;8.530;2023-12-07T12:56:32;4.70;1.00
5802;DHT22;2927;49.366;8.530;2023-12-07T12:58:59;4.70;99.90
5802;DHT22;2927;49.366;8.530;2023-12-07T13:01:26;4.60;99.90
5802;DHT22;2927;49.366;8.530;2023-12-07T13:03:53;4.50;23.90
5802;DHT22;2927;49.366;8.530;2023-12-07T13:06:22;4.50;99.90
5802;DHT22;2927;49.366;8.530;2023-12-07T13:08:49;4.50;99.90
5802;DHT22;2927;49.366;8.530;2023-12-07T13:11:18;4.50;99.90
5802;DHT22;2927;49.366;8.530;2023-12-07T13:13:49;4.50;99.90
5802;DHT22;2927;49.366;8.530;2023-12-07T13:16:16;4.50;1.00
5802;DHT22;2927;49.366;8.530;2023-12-07T13:18:44;4.50;1.00
5802;DHT22;2927;49.366;8.530;2023-12-07T13:21:16;4.50;40.70
5802;DHT22;2927;49.366;8.530;2023-12-07T13:23:45;4.40;1.00
5802;DHT22;2927;49.366;8.530;2023-12-07T13:26:11;4.40;1.00
5802;DHT22;2927;49.366;8.530;2023-12-07T13:28:39;4.30;1.00
5802;DHT22;2927;49.366;8.530;2023-12-07T13:31:07;4.30;11.80
5802;DHT22;2927;49.366;8.530;2023-12-07T13:33:33;4.30;99.90
5802;DHT22;2927;49.366;8.530;2023-12-07T13:36:01;4.30;96.00
5802;DHT22;2927;49.366;8.530;2023-12-07T13:38:27;4.30;99.90
5802;DHT22;2927;49.366;8.530;2023-12-07T13:40:55;4.30;99.90
5802;DHT22;2927;49.366;8.530;2023-12-07T13:43:21;4.40;99.90
5802;DHT22;2927;49.366;8.530;2023-12-07T13:45:49;4.40;99.90
5802;DHT22;2927;49.366;8.530;2023-12-07T13:48:15;4.40;99.90
5802;DHT22;2927;49.366;8.530;2023-12-07T13:50:41;4.50;99.90
5802;DHT22;2927;49.366;8.530;2023-12-07T13:53:07;4.50;99.90
5802;DHT22;2927;49.366;8.530;2023-12-07T13:55:36;4.50;90.30
5802;DHT22;2927;49.366;8.530;2023-12-07T13:58:03;4.60;1.00
5802;DHT22;2927;49.366;8.530;2023-12-07T14:00:28;4.60;1.00
5802;DHT22;2927;49.366;8.530;2023-12-07T14:02:54;4.60;1.00
5802;DHT22;2927;49.366;8.530;2023-12-07T14:05:19;4.70;1.00
5802;DHT22;2927;49.366;8.530;2023-12-07T14:07:45;4.70;1.00
5802;DHT22;2927;49.366;8.530;2023-12-07T14:10:11;4.70;1.00
5802;DHT22;2927;49.366;8.530;2023-12-07T14:12:37;4.60;1.00
5802;DHT22;2927;49.366;8.530;2023-12-07T14:15:03;4.50;38.80
5802;DHT22;2927;49.366;8.530;2023-12-07T14:17:29;4.50;99.90
5802;DHT22;2927;49.366;8.530;2023-12-07T14:20:08;4.40;1.00
5802;DHT22;2927;49.366;8.530;2023-12-07T14:22:35;4.30;1.00
5802;DHT22;2927;49.366;8.530;2023-12-07T14:25:01;4.20;1.00
5802;DHT22;2927;49.366;8.530;2023-12-07T14:27:27;4.10;1.00
5802;DHT22;2927;49.366;8.530;2023-12-07T14:29:52;4.10;1.00
5802;DHT22;2927;49.366;8.530;2023-12-07T14:32:18;4.00;1.00
5802;DHT22;2927;49.366;8.530;2023-12-07T14:34:44;4.00;1.00
5802;DHT22;2927;49.366;8.530;2023-12-07T14:37:09;3.90;1.00
5802;DHT22;2927;49.366;8.530;2023-12-07T14:39:36;3.90;1.00
5802;DHT22;2927;49.366;8.530;2023-12-07T14:42:02;3.90;1.00
5802;DHT22;2927;49.366;8.530;2023-12-07T14:44:30;3.80;1.00
5802;DHT22;2927;49.366;8.530;2023-12-07T14:46:56;3.80;1.00
5802;DHT22;2927;49.366;8.530;2023-12-07T14:49:22;3.80;1.00
5802;DHT22;2927;49.366;8.530;2023-12-07T14:51:49;3.70;1.00
5802;DHT22;2927;49.366;8.530;2023-12-07T14:54:16;3.70;1.00
5802;DHT22;2927;49.366;8.530;2023-12-07T14:56:42;3.70;1.00
5802;DHT22;2927;49.366;8.530;2023-12-07T14:59:08;3.60;1.00
5802;DHT22;2927;49.366;8.530;2023-12-07T15:01:37;3.60;7.90
5802;DHT22;2927;49.366;8.530;2023-12-07T15:04:04;3.50;49.60
5802;DHT22;2927;49.366;8.530;2023-12-07T15:06:31;3.40;90.60
5802;DHT22;2927;49.366;8.530;2023-12-07T15:08:56;3.30;99.90
5802;DHT22;2927;49.366;8.530;2023-12-07T15:11:23;3.30;99.90
5802;DHT22;2927;49.366;8.530;2023-12-07T15:13:49;3.30;99.90
5802;DHT22;2927;49.366;8.530;2023-12-07T15:16:14;3.20;99.90
5802;DHT22;2927;49.366;8.530;2023-12-07T15:18:40;3.20;99.90
5802;DHT22;2927;49.366;8.530;2023-12-07T15:21:11;3.30;99.90
5802;DHT22;2927;49.366;8.530;2023-12-07T15:23:38;3.30;99.90
5802;DHT22;2927;49.366;8.530;2023-12-07T15:26:04;3.30;99.90
5802;DHT22;2927;49.366;8.530;2023-12-07T15:28:30;3.30;99.90
5802;DHT22;2927;49.366;8.530;2023-12-07T15:30:56;3.20;99.90
5802;DHT22;2927;49.366;8.530;2023-12-07T15:33:21;3.20;99.90
5802;DHT22;2927;49.366;8.530;2023-12-07T15:35:47;3.20;99.90
5802;DHT22;2927;49.366;8.530;2023-12-07T15:38:12;3.20;99.90
5802;DHT22;2927;49.366;8.530;2023-12-07T15:40:39;3.20;99.90
5802;DHT22;2927;49.366;8.530;2023-12-07T15:43:04;3.20;99.90
5802;DHT22;2927;49.366;8.530;2023-12-07T15:45:30;3.20;99.90
5802;DHT22;2927;49.366;8.530;2023-12-07T15:47:56;3.20;99.90
5802;DHT22;2927;49.366;8.530;2023-12-07T15:50:22;3.10;99.90
5802;DHT22;2927;49.366;8.530;2023-12-07T15:52:47;3.10;99.90
5802;DHT22;2927;49.366;8.530;2023-12-07T15:55:13;3.10;99.90
5802;DHT22;2927;49.366;8.530;2023-12-07T15:57:40;3.10;99.90
5802;DHT22;2927;49.366;8.530;2023-12-07T16:00:07;3.00;99.90
5802;DHT22;2927;49.366;8.530;2023-12-07T16:02:33;2.90;99.90
5802;DHT22;2927;49.366;8.530;2023-12-07T16:05:01;2.90;99.90
5802;DHT22;2927;49.366;8.530;2023-12-07T16:07:27;2.90;99.90
5802;DHT22;2927;49.366;8.530;2023-12-07T16:09:52;2.80;99.90
5802;DHT22;2927;49.366;8.530;2023-12-07T16:12:18;2.80;99.90
5802;DHT22;2927;49.366;8.530;2023-12-07T16:14:45;2.70;99.90
5802;DHT22;2927;49.366;8.530;2023-12-07T16:17:11;2.70;99.90
5802;DHT22;2927;49.366;8.530;2023-12-07T16:19:37;2.70;99.90